Time;durP1;ratioP1;P1;durP2;ratioP2;P2;SDS_P1;SDS_P2;PMS_P1;PMS_P2;Temp;Humidity;BMP_temperature;BMP_pressure;BME280_temperature;BME280_humidity;BME280_pressure;Samples;Min_cycle;Max_cycle;Signal;HPM_P1;HPM_P2
2022/08/15 00:01:11;;;;;;;;;;;;;;;23.66;68.37;99965.34;7405567;19;1397;-59
2022/08/15 00:03:44;;;;;;;;;;;;;;;23.70;68.46;99962.09;7404466;19;1883;-57
2022/08/15 00:06:13;;;;;;;;;;;;;;;23.71;68.73;99963.75;7406604;19;1310;-58
2022/08/15 00:08:47;;;;;;;;;;;;;;;23.66;69.07;99954.56;7405937;19;1310;-58
2022/08/15 00:11:18;;;;;;;;;;;;;;;23.71;69.04;99944.03;7406187;19;1343;-58
2022/08/15 00:13:49;;;;;;;;;;;;;;;23.81;68.54;99945.47;7406871;19;1580;-57
2022/08/15 00:16:19;;;;;;;;;;;;;;;23.87;68.14;99956.53;7406337;19;1297;-57
2022/08/15 00:18:51;;;;;;;;;;;;;;;23.72;68.67;99941.16;7405038;19;1854;-58
2022/08/15 00:21:21;;;;;;;;;;;;;;;23.69;68.87;99948.78;7404969;19;1787;-57
2022/08/15 00:23:50;;;;;;;;;;;;;;;23.72;68.71;99943.84;7403566;19;1861;-59
2022/08/15 00:26:18;;;;;;;;;;;;;;;23.71;68.49;99946.72;7405604;19;1512;-57
2022/08/15 00:28:47;;;;;;;;;;;;;;;23.65;68.66;99960.97;7406308;19;1548;-57
2022/08/15 00:31:15;;;;;;;;;;;;;;;23.62;68.95;99965.72;7406071;19;1582;-59
2022/08/15 00:33:43;;;;;;;;;;;;;;;23.60;68.70;99964.22;7405062;19;1414;-58
2022/08/15 00:36:15;;;;;;;;;;;;;;;23.69;68.96;99957.69;7403484;19;1506;-59
2022/08/15 00:38:44;;;;;;;;;;;;;;;23.69;68.89;99952.31;7405099;19;1318;-57
2022/08/15 00:43:57;;;;;;;;;;;;;;;23.72;68.83;99943.00;7405406;19;1306;-58
2022/08/15 00:46:27;;;;;;;;;;;;;;;23.76;69.01;99963.22;7405090;19;1358;-57
2022/08/15 00:48:56;;;;;;;;;;;;;;;23.79;68.58;99957.44;7404835;19;1228;-58
2022/08/15 00:51:29;;;;;;;;;;;;;;;23.80;68.09;99943.78;7404651;19;1734;-57
2022/08/15 00:53:59;;;;;;;;;;;;;;;23.78;68.26;99953.09;7404232;19;1508;-57
2022/08/15 00:56:30;;;;;;;;;;;;;;;23.66;68.65;99947.28;7403512;19;1597;-57
2022/08/15 00:58:58;;;;;;;;;;;;;;;23.57;68.65;99965.41;7403429;19;1851;-58
2022/08/15 01:01:27;;;;;;;;;;;;;;;23.59;68.77;99962.53;7405459;19;1296;-58
2022/08/15 01:03:55;;;;;;;;;;;;;;;23.64;68.40;99946.63;7404918;19;1293;-59
2022/08/15 01:06:24;;;;;;;;;;;;;;;23.74;68.09;99946.38;7404540;19;1493;-59
2022/08/15 01:08:55;;;;;;;;;;;;;;;23.78;67.90;99958.50;7404544;19;1172;-59
2022/08/15 01:11:26;;;;;;;;;;;;;;;23.61;68.44;99955.09;7404084;19;1484;-59
2022/08/15 01:13:56;;;;;;;;;;;;;;;23.57;68.72;99964.59;7403924;19;1339;-59
2022/08/15 01:16:26;;;;;;;;;;;;;;;23.65;68.58;99963.66;7404339;19;1290;-58
2022/08/15 01:18:55;;;;;;;;;;;;;;;23.68;68.15;99966.00;7404801;19;1529;-59
2022/08/15 01:21:28;;;;;;;;;;;;;;;23.78;68.25;99980.91;7403268;19;1857;-57
2022/08/15 01:24:05;;;;;;;;;;;;;;;23.67;67.88;99958.91;7402175;19;1443;-57
2022/08/15 01:26:37;;;;;;;;;;;;;;;23.48;68.58;99969.25;7402852;19;1495;-57
2022/08/15 01:29:06;;;;;;;;;;;;;;;23.51;68.42;99970.72;7403366;19;1306;-59
2022/08/15 01:31:36;;;;;;;;;;;;;;;23.58;67.76;99982.47;7403875;19;1406;-57
2022/08/15 01:34:05;;;;;;;;;;;;;;;23.67;67.66;99975.13;7402983;19;1561;-58
2022/08/15 01:36:34;;;;;;;;;;;;;;;23.68;67.93;99966.00;7402684;19;1259;-59
2022/08/15 01:39:08;;;;;;;;;;;;;;;23.62;67.92;99967.59;7402486;19;1322;-59
2022/08/15 01:41:43;;;;;;;;;;;;;;;23.72;67.47;99970.84;7404050;19;1283;-59
2022/08/15 01:44:17;;;;;;;;;;;;;;;23.67;67.58;99956.22;7402233;19;1724;-57
2022/08/15 01:46:49;;;;;;;;;;;;;;;23.51;67.91;99968.84;7402868;19;1730;-59
2022/08/15 01:49:21;;;;;;;;;;;;;;;23.58;67.98;99967.09;7403463;19;1533;-59
2022/08/15 01:51:51;;;;;;;;;;;;;;;23.66;67.55;99978.84;7403388;19;1289;-57
2022/08/15 01:54:20;;;;;;;;;;;;;;;23.72;67.67;99964.59;7401603;19;1433;-59
2022/08/15 01:56:50;;;;;;;;;;;;;;;23.74;67.12;99960.69;7402856;19;1543;-57
2022/08/15 01:59:20;;;;;;;;;;;;;;;23.72;67.07;99970.84;7402363;19;1864;-57
2022/08/15 02:07:17;;;;;;;;;;;;;;;23.64;67.38;99954.75;7389370;19;2410;-53
2022/08/15 02:12:33;;;;;;;;;;;;;;;23.73;66.89;99968.97;7399246;19;2240;-53
2022/08/15 02:15:03;;;;;;;;;;;;;;;23.61;67.08;99960.50;7404438;19;1882;-52
2022/08/15 02:17:34;;;;;;;;;;;;;;;23.47;67.33;99970.25;7406970;19;1771;-53
2022/08/15 02:20:07;;;;;;;;;;;;;;;23.48;67.67;99987.31;7406214;19;2050;-52
2022/08/15 02:22:46;;;;;;;;;;;;;;;23.66;67.43;99973.47;7407109;19;1584;-52
2022/08/15 02:25:15;;;;;;;;;;;;;;;23.68;67.26;99976.81;7405322;19;1335;-53
2022/08/15 02:27:49;;;;;;;;;;;;;;;23.60;67.49;99988.53;7405973;19;1620;-52
2022/08/15 02:30:25;;;;;;;;;;;;;;;23.48;68.06;99971.13;7405742;19;1604;-52
2022/08/15 02:32:56;;;;;;;;;;;;;;;23.52;67.78;99975.94;7404640;19;1674;-52
2022/08/15 02:35:36;;;;;;;;;;;;;;;23.65;67.30;99963.66;7406052;19;1839;-52
2022/08/15 02:40:53;;;;;;;;;;;;;;;23.73;67.23;99986.00;7402808;19;2224;-52
2022/08/15 02:43:29;;;;;;;;;;;;;;;23.62;67.29;99984.59;7405430;19;1375;-52
2022/08/15 02:46:00;;;;;;;;;;;;;;;23.67;67.26;99975.94;7405087;19;1718;-51
2022/08/15 02:48:31;;;;;;;;;;;;;;;23.67;67.42;99985.91;7404980;19;1477;-51
2022/08/15 02:51:03;;;;;;;;;;;;;;;23.64;67.40;99989.81;7405325;19;1660;-51
2022/08/15 02:53:52;;;;;;;;;;;;;;;23.65;67.29;99982.56;7404212;19;1544;-53
2022/08/15 02:56:29;;;;;;;;;;;;;;;23.70;67.29;99983.69;7405076;19;1544;-51
2022/08/15 02:59:00;;;;;;;;;;;;;;;23.79;67.10;99993.38;7401586;19;1402;-52
2022/08/15 03:01:29;;;;;;;;;;;;;;;23.65;67.50;99999.59;7404347;19;1863;-51
2022/08/15 03:03:58;;;;;;;;;;;;;;;23.69;67.39;100000.88;7404220;19;1308;-51
2022/08/15 03:06:29;;;;;;;;;;;;;;;23.73;67.29;100006.75;7402650;19;1434;-51
2022/08/15 03:09:00;;;;;;;;;;;;;;;23.65;67.50;99994.19;7403514;19;1861;-51
2022/08/15 03:11:29;;;;;;;;;;;;;;;23.82;67.26;99997.59;7403698;19;1449;-51
2022/08/15 03:14:12;;;;;;;;;;;;;;;23.73;67.58;99987.88;7401051;19;1469;-51
2022/08/15 03:16:45;;;;;;;;;;;;;;;23.61;67.89;99988.31;7394918;19;1551;-53
2022/08/15 03:19:16;;;;;;;;;;;;;;;23.57;68.26;99995.09;7398079;19;1430;-53
2022/08/15 03:21:44;;;;;;;;;;;;;;;23.54;68.42;100000.06;7396955;19;1874;-51
2022/08/15 03:24:13;;;;;;;;;;;;;;;23.55;68.21;99988.22;7398492;19;1504;-51
2022/08/15 03:26:46;;;;;;;;;;;;;;;23.56;68.23;99987.22;7399647;19;1436;-51
2022/08/15 03:29:15;;;;;;;;;;;;;;;23.68;67.74;99995.69;7400701;19;1325;-51
2022/08/15 03:31:49;;;;;;;;;;;;;;;23.69;67.52;100003.59;7403924;19;1231;-51
2022/08/15 03:34:17;;;;;;;;;;;;;;;23.65;67.89;100010.38;7402933;19;1445;-51
2022/08/15 03:36:46;;;;;;;;;;;;;;;23.70;67.67;99981.00;7403881;19;1497;-51
2022/08/15 03:39:15;;;;;;;;;;;;;;;23.80;67.41;100013.97;7402704;19;1458;-51
2022/08/15 03:41:43;;;;;;;;;;;;;;;23.71;67.49;100001.53;7401518;19;1866;-50
2022/08/15 03:44:12;;;;;;;;;;;;;;;23.74;67.38;100003.88;7402830;19;1840;-50
2022/08/15 03:46:40;;;;;;;;;;;;;;;23.68;67.54;99999.22;7403592;19;1588;-53
2022/08/15 03:49:13;;;;;;;;;;;;;;;23.57;68.04;99997.81;7404372;19;1909;-53
2022/08/15 03:51:41;;;;;;;;;;;;;;;23.54;68.18;100008.16;7404222;19;1647;-53
2022/08/15 03:54:10;;;;;;;;;;;;;;;23.58;68.32;100007.59;7402236;19;1608;-53
2022/08/15 03:56:38;;;;;;;;;;;;;;;23.64;67.77;99997.94;7403023;19;1756;-51
2022/08/15 03:59:06;;;;;;;;;;;;;;;23.73;67.49;100009.47;7402836;19;1811;-51
2022/08/15 04:01:37;;;;;;;;;;;;;;;23.76;67.46;99996.44;7402031;19;1846;-50
2022/08/15 04:04:06;;;;;;;;;;;;;;;23.69;67.74;100010.84;7403323;19;1825;-50
2022/08/15 04:06:40;;;;;;;;;;;;;;;23.67;67.84;99991.31;7401248;19;1746;-51
2022/08/15 04:09:10;;;;;;;;;;;;;;;23.65;68.01;99986.09;7402761;19;1439;-51
2022/08/15 04:11:38;;;;;;;;;;;;;;;23.64;68.24;100000.63;7401803;19;1588;-49
2022/08/15 04:14:09;;;;;;;;;;;;;;;23.58;67.88;99999.50;7401265;19;1618;-51
2022/08/15 04:16:37;;;;;;;;;;;;;;;23.62;68.24;99998.09;7402712;19;1600;-51
2022/08/15 04:19:05;;;;;;;;;;;;;;;23.70;67.39;100007.16;7402462;19;1690;-52
2022/08/15 04:21:34;;;;;;;;;;;;;;;23.60;67.65;100000.16;7400454;19;1867;-51
2022/08/15 04:24:05;;;;;;;;;;;;;;;23.56;67.92;100000.72;7401391;19;1607;-51
2022/08/15 04:26:34;;;;;;;;;;;;;;;23.57;68.22;99999.66;7401681;19;1520;-51
2022/08/15 04:29:02;;;;;;;;;;;;;;;23.61;67.83;100019.88;7402101;19;1691;-51
2022/08/15 04:31:31;;;;;;;;;;;;;;;23.56;67.83;100014.22;7400099;19;1682;-52
2022/08/15 04:33:59;;;;;;;;;;;;;;;23.61;67.76;100009.06;7401556;19;1917;-52
2022/08/15 04:36:28;;;;;;;;;;;;;;;23.64;68.23;100006.03;7401059;19;1734;-51
2022/08/15 04:38:57;;;;;;;;;;;;;;;23.54;68.46;100008.16;7402092;19;1584;-51
2022/08/15 04:41:30;;;;;;;;;;;;;;;23.56;68.41;100011.50;7400857;19;1850;-51
2022/08/15 04:43:58;;;;;;;;;;;;;;;23.56;68.46;100014.22;7401280;19;1773;-51
2022/08/15 04:46:26;;;;;;;;;;;;;;;23.74;67.79;100019.25;7401742;19;1355;-51
2022/08/15 04:48:56;;;;;;;;;;;;;;;23.76;67.64;100007.22;7401899;19;1525;-51
2022/08/15 04:51:24;;;;;;;;;;;;;;;23.77;67.64;100014.31;7401169;19;1806;-51
2022/08/15 04:53:52;;;;;;;;;;;;;;;23.79;67.61;100006.88;7401191;19;1907;-51
2022/08/15 04:56:20;;;;;;;;;;;;;;;23.78;67.78;100005.22;7401368;19;1747;-51
2022/08/15 04:58:52;;;;;;;;;;;;;;;23.75;67.90;100013.66;7401991;19;1733;-51
2022/08/15 05:01:21;;;;;;;;;;;;;;;23.74;68.25;100021.94;7400010;19;1841;-51
2022/08/15 05:03:49;;;;;;;;;;;;;;;23.78;67.47;100016.03;7400797;19;1722;-52
2022/08/15 05:06:18;;;;;;;;;;;;;;;23.81;67.79;100012.97;7398616;19;1598;-51
2022/08/15 05:08:47;;;;;;;;;;;;;;;23.79;67.73;100019.53;7400741;19;1388;-51
2022/08/15 05:11:17;;;;;;;;;;;;;;;23.80;67.88;100005.88;7401044;19;1688;-51
2022/08/15 05:13:46;;;;;;;;;;;;;;;23.84;67.94;100003.66;7400792;19;1501;-51
2022/08/15 05:16:16;;;;;;;;;;;;;;;23.79;68.12;100025.78;7401000;19;1849;-52
2022/08/15 05:18:45;;;;;;;;;;;;;;;23.81;68.02;100025.59;7398889;19;1769;-51
2022/08/15 05:21:14;;;;;;;;;;;;;;;23.80;67.99;100027.47;7398941;19;1920;-51
2022/08/15 05:23:44;;;;;;;;;;;;;;;23.85;67.91;100031.47;7400229;19;1900;-51
2022/08/15 05:26:13;;;;;;;;;;;;;;;23.74;68.28;100020.09;7400277;19;1869;-52
2022/08/15 05:28:42;;;;;;;;;;;;;;;23.74;68.59;100030.88;7401444;19;1840;-52
2022/08/15 05:31:11;;;;;;;;;;;;;;;23.78;68.47;100042.19;7401100;19;1529;-52
2022/08/15 05:33:43;;;;;;;;;;;;;;;23.71;68.83;100039.34;7399588;19;1952;-51
2022/08/15 05:36:11;;;;;;;;;;;;;;;23.76;68.75;100030.69;7399219;19;1800;-51
2022/08/15 05:38:42;;;;;;;;;;;;;;;23.70;68.86;100023.34;7400198;19;1655;-51
2022/08/15 05:41:17;;;;;;;;;;;;;;;23.53;69.43;100033.44;7397806;19;1889;-52
2022/08/15 05:43:50;;;;;;;;;;;;;;;23.48;69.76;100025.09;7402743;19;1568;-51
2022/08/15 05:46:24;;;;;;;;;;;;;;;23.42;70.16;100034.75;7408115;19;1426;-51
2022/08/15 05:49:01;;;;;;;;;;;;;;;23.49;69.61;100015.94;7406737;19;1671;-52
2022/08/15 05:51:32;;;;;;;;;;;;;;;23.61;69.51;100036.06;7406887;19;1570;-51
2022/08/15 05:54:05;;;;;;;;;;;;;;;23.69;69.31;100032.44;7404847;19;1330;-52
2022/08/15 05:56:38;;;;;;;;;;;;;;;23.66;69.33;100033.66;7401700;19;1466;-51
2022/08/15 05:59:08;;;;;;;;;;;;;;;23.68;68.95;100031.63;7407107;19;1734;-52
2022/08/15 06:01:39;;;;;;;;;;;;;;;23.66;69.25;100036.38;7403530;19;1843;-51
2022/08/15 06:04:13;;;;;;;;;;;;;;;23.69;69.16;100035.16;7406324;19;1523;-52
2022/08/15 06:06:45;;;;;;;;;;;;;;;23.71;69.08;100042.03;7404516;19;1533;-51
2022/08/15 06:09:30;;;;;;;;;;;;;;;23.74;69.03;100036.28;7406282;19;1592;-52
2022/08/15 06:11:59;;;;;;;;;;;;;;;23.61;69.28;100025.28;7407446;19;1445;-52
2022/08/15 06:14:30;;;;;;;;;;;;;;;23.59;69.31;100043.50;7406258;19;1596;-52
2022/08/15 06:17:01;;;;;;;;;;;;;;;23.68;69.08;100036.19;7406664;19;1940;-52
2022/08/15 06:19:33;;;;;;;;;;;;;;;23.63;69.17;100025.94;7405464;19;1691;-52
2022/08/15 06:22:05;;;;;;;;;;;;;;;23.65;69.19;100037.38;7402799;19;1871;-53
2022/08/15 06:24:37;;;;;;;;;;;;;;;23.65;68.92;100052.75;7406014;19;1558;-53
2022/08/15 06:27:13;;;;;;;;;;;;;;;23.73;68.65;100061.59;7406479;19;1846;-52
2022/08/15 06:29:50;;;;;;;;;;;;;;;23.70;69.01;100055.75;7405676;19;1538;-52
2022/08/15 06:32:24;;;;;;;;;;;;;;;23.61;69.78;100060.34;7406198;19;1480;-51
2022/08/15 06:34:58;;;;;;;;;;;;;;;23.50;70.36;100066.22;7405420;19;2003;-51
2022/08/15 06:37:44;;;;;;;;;;;;;;;23.42;70.43;100070.66;7404983;19;1604;-51
2022/08/15 06:40:28;;;;;;;;;;;;;;;23.61;69.52;100068.47;7403390;19;1457;-51
2022/08/15 06:43:11;;;;;;;;;;;;;;;23.63;69.53;100052.91;7398693;19;1855;-53
2022/08/15 06:45:52;;;;;;;;;;;;;;;23.72;69.52;100054.53;7403491;19;1510;-53
2022/08/15 06:48:22;;;;;;;;;;;;;;;23.66;69.97;100063.34;7402053;19;1818;-52
2022/08/15 06:50:59;;;;;;;;;;;;;;;23.69;69.45;100065.69;7404391;19;1465;-52
2022/08/15 06:53:39;;;;;;;;;;;;;;;23.72;69.43;100065.31;7405270;19;1300;-52
2022/08/15 06:59:27;;;;;;;;;;;;;;;23.65;69.38;100058.97;7402142;19;1903;-53
2022/08/15 07:02:16;;;;;;;;;;;;;;;23.84;68.70;100051.41;7403109;19;1849;-54
2022/08/15 07:04:54;;;;;;;;;;;;;;;23.87;68.13;100041.06;7403940;19;1405;-53
2022/08/15 07:07:40;;;;;;;;;;;;;;;24.01;68.06;100050.19;7403732;19;1365;-51
2022/08/15 07:10:19;;;;;;;;;;;;;;;23.91;68.26;100044.22;7405053;19;1535;-53
2022/08/15 07:12:52;;;;;;;;;;;;;;;23.81;68.55;100049.91;7405555;19;1963;-46
2022/08/15 07:15:27;;;;;;;;;;;;;;;23.67;68.93;100056.94;7404062;19;1894;-47
2022/08/15 07:18:00;;;;;;;;;;;;;;;23.49;69.38;100053.72;7402240;19;1905;-51
2022/08/15 07:20:29;;;;;;;;;;;;;;;23.42;68.95;100038.28;7404223;19;1941;-49
2022/08/15 07:23:00;;;;;;;;;;;;;;;23.48;69.23;100047.50;7399699;19;1855;-51
2022/08/15 07:25:29;;;;;;;;;;;;;;;23.58;68.94;100052.66;7398881;19;1341;-50
2022/08/15 07:27:59;;;;;;;;;;;;;;;23.69;68.70;100054.03;7394993;19;1541;-50
2022/08/15 07:30:30;;;;;;;;;;;;;;;23.78;68.29;100052.97;7397216;19;1695;-52
2022/08/15 07:32:59;;;;;;;;;;;;;;;23.97;67.92;100051.59;7398244;19;1539;-49
2022/08/15 07:35:29;;;;;;;;;;;;;;;23.79;69.08;100055.47;7400043;19;1485;-49
2022/08/15 07:40:47;;;;;;;;;;;;;;;23.58;69.25;100048.06;7399759;19;1643;-50
2022/08/15 07:43:28;;;;;;;;;;;;;;;23.75;68.64;100045.22;7401256;19;1853;-49
2022/08/15 07:46:08;;;;;;;;;;;;;;;23.78;68.37;100056.53;7403645;19;1695;-49
2022/08/15 07:48:39;;;;;;;;;;;;;;;23.80;68.13;100040.97;7402485;19;1629;-49
2022/08/15 07:53:58;;;;;;;;;;;;;;;23.63;68.47;100045.69;7398620;19;2188;-51
2022/08/15 07:56:32;;;;;;;;;;;;;;;23.80;68.14;100048.25;7403278;19;1350;-53
2022/08/15 07:59:10;;;;;;;;;;;;;;;23.91;68.15;100057.72;7405804;19;1915;-52
2022/08/15 08:01:45;;;;;;;;;;;;;;;24.04;67.88;100057.94;7402154;19;1846;-52
2022/08/15 08:04:20;;;;;;;;;;;;;;;24.01;67.77;100061.00;7402755;19;1687;-53
2022/08/15 08:06:53;;;;;;;;;;;;;;;24.08;67.37;100048.44;7401082;19;1352;-52
2022/08/15 08:09:53;;;;;;;;;;;;;;;24.16;67.11;100055.59;7404191;19;1797;-52
2022/08/15 08:12:31;;;;;;;;;;;;;;;24.21;66.87;100051.31;7404396;19;1284;-52
2022/08/15 08:15:06;;;;;;;;;;;;;;;24.15;67.14;100054.78;7403517;19;1533;-53
2022/08/15 08:17:59;;;;;;;;;;;;;;;24.16;67.26;100066.41;7404314;19;1006;-53
2022/08/15 08:20:42;;;;;;;;;;;;;;;24.17;67.60;100054.56;7403438;19;1842;-53
2022/08/15 08:23:25;;;;;;;;;;;;;;;24.17;67.39;100063.53;7401398;19;1872;-53
2022/08/15 08:26:06;;;;;;;;;;;;;;;24.20;67.20;100052.34;7401248;19;1663;-54
2022/08/15 08:28:48;;;;;;;;;;;;;;;24.30;67.08;100051.22;7402334;19;2229;-53
2022/08/15 08:31:22;;;;;;;;;;;;;;;24.28;67.34;100064.91;7401978;19;1571;-53
2022/08/15 08:34:08;;;;;;;;;;;;;;;24.35;67.00;100059.59;7401805;19;1499;-53
2022/08/15 08:36:52;;;;;;;;;;;;;;;24.32;66.82;100058.09;7401613;19;1264;-54
2022/08/15 08:39:29;;;;;;;;;;;;;;;24.39;66.53;100063.59;7401931;19;1580;-54
2022/08/15 08:42:16;;;;;;;;;;;;;;;24.42;66.64;100057.81;7401595;19;1822;-54
2022/08/15 08:44:50;;;;;;;;;;;;;;;24.42;66.54;100055.13;7399782;19;1695;-53
2022/08/15 08:47:32;;;;;;;;;;;;;;;24.44;66.34;100061.16;7401646;19;1687;-54
2022/08/15 08:50:15;;;;;;;;;;;;;;;24.46;66.51;100045.59;7400788;19;1687;-54
2022/08/15 08:52:58;;;;;;;;;;;;;;;24.53;66.32;100073.59;7402886;19;1071;-53
2022/08/15 08:55:36;;;;;;;;;;;;;;;24.54;66.05;100064.44;7402356;19;1655;-53
2022/08/15 08:58:16;;;;;;;;;;;;;;;24.55;66.10;100059.88;7402064;19;1309;-54
2022/08/15 09:01:04;;;;;;;;;;;;;;;24.58;66.15;100056.78;7401455;19;1671;-54
2022/08/15 09:03:34;;;;;;;;;;;;;;;24.54;66.23;100053.63;7399251;19;1853;-54
2022/08/15 09:06:05;;;;;;;;;;;;;;;24.56;66.17;100058.84;7400375;19;1508;-54
2022/08/15 09:08:56;;;;;;;;;;;;;;;24.59;65.91;100062.03;7402422;19;1338;-54
2022/08/15 09:11:36;;;;;;;;;;;;;;;24.56;65.70;100056.16;7401951;19;1524;-54
2022/08/15 09:14:12;;;;;;;;;;;;;;;24.61;66.08;100054.56;7401315;19;1676;-54
2022/08/15 09:16:50;;;;;;;;;;;;;;;24.58;65.74;100049.50;7401617;19;1310;-54
2022/08/15 09:19:26;;;;;;;;;;;;;;;24.60;65.99;100060.97;7405626;19;1679;-54
2022/08/15 09:21:56;;;;;;;;;;;;;;;24.60;65.54;100036.66;7409057;19;1857;-54
2022/08/15 09:24:27;;;;;;;;;;;;;;;24.68;65.60;100040.28;7406281;19;2050;-54
2022/08/15 09:27:01;;;;;;;;;;;;;;;24.67;65.75;100044.84;7408679;19;1586;-54
2022/08/15 09:29:38;;;;;;;;;;;;;;;24.70;65.56;100038.22;7408422;19;1564;-53
2022/08/15 09:32:26;;;;;;;;;;;;;;;24.67;65.63;100035.88;7408998;19;1407;-54
2022/08/15 09:35:04;;;;;;;;;;;;;;;24.69;65.59;100048.19;7409169;19;1504;-53
2022/08/15 09:37:51;;;;;;;;;;;;;;;24.70;65.47;100032.81;7409283;19;1704;-53
2022/08/15 09:40:33;;;;;;;;;;;;;;;24.69;65.47;100028.41;7407705;19;1942;-53
2022/08/15 09:43:22;;;;;;;;;;;;;;;24.68;65.75;100030.28;7405782;19;1861;-54
2022/08/15 09:46:15;;;;;;;;;;;;;;;24.68;65.60;100015.94;7407970;19;1485;-54
2022/08/15 09:49:02;;;;;;;;;;;;;;;24.72;65.51;100037.00;7407373;19;1417;-54
2022/08/15 09:51:48;;;;;;;;;;;;;;;24.70;65.54;100033.63;7408546;19;1836;-54
2022/08/15 09:54:28;;;;;;;;;;;;;;;24.67;65.51;100017.81;7404457;19;1362;-53
2022/08/15 09:57:11;;;;;;;;;;;;;;;24.68;65.48;100015.94;7407806;19;1663;-53
2022/08/15 09:59:52;;;;;;;;;;;;;;;24.75;65.55;100024.94;7405209;19;1579;-54
2022/08/15 10:02:32;;;;;;;;;;;;;;;24.75;65.62;100027.66;7406271;19;1865;-54
2022/08/15 10:05:14;;;;;;;;;;;;;;;24.75;65.28;100027.66;7406014;19;2055;-54
2022/08/15 10:07:46;;;;;;;;;;;;;;;24.76;65.47;100013.13;7406848;19;1551;-54
2022/08/15 10:10:48;;;;;;;;;;;;;;;24.77;65.36;100018.34;7406016;19;1651;-53
2022/08/15 10:13:32;;;;;;;;;;;;;;;24.79;65.38;100018.16;7404979;19;1486;-53
2022/08/15 10:16:05;;;;;;;;;;;;;;;24.78;65.00;100011.88;7406855;19;1653;-54
2022/08/15 10:18:55;;;;;;;;;;;;;;;24.81;65.27;100021.50;7405436;19;1860;-54
2022/08/15 10:21:45;;;;;;;;;;;;;;;24.78;65.20;100013.75;7405279;19;1754;-54
2022/08/15 10:24:27;;;;;;;;;;;;;;;24.80;65.03;100027.94;7403828;19;1858;-53
2022/08/15 10:27:22;;;;;;;;;;;;;;;24.78;65.09;100011.88;7406534;19;1363;-54
2022/08/15 10:29:55;;;;;;;;;;;;;;;24.73;65.17;100017.06;7406265;19;1474;-53
2022/08/15 10:35:22;;;;;;;;;;;;;;;23.25;65.37;100017.84;7403814;19;1618;-53
2022/08/15 10:37:56;;;;;;;;;;;;;;;22.95;64.51;100020.41;7403335;19;1835;-53
2022/08/15 10:40:49;;;;;;;;;;;;;;;22.84;63.92;100012.75;7406648;19;1587;-53
2022/08/15 10:43:32;;;;;;;;;;;;;;;22.86;63.64;100007.16;7401904;19;1867;-53
2022/08/15 10:46:13;;;;;;;;;;;;;;;23.12;63.00;100017.59;7404615;19;1806;-53
2022/08/15 10:48:57;;;;;;;;;;;;;;;22.97;63.43;100012.97;7403417;19;1858;-54
2022/08/15 10:51:34;;;;;;;;;;;;;;;22.99;63.36;99997.47;7404845;19;1818;-52
2022/08/15 10:54:13;;;;;;;;;;;;;;;22.98;63.36;100009.28;7402807;19;1429;-50
2022/08/15 10:56:47;;;;;;;;;;;;;;;22.97;63.01;100001.34;7405550;19;1543;-51
2022/08/15 10:59:41;;;;;;;;;;;;;;;23.08;62.51;99986.63;7405039;19;2260;-51
2022/08/15 11:02:34;;;;;;;;;;;;;;;22.87;63.17;99989.97;7401797;19;1872;-52
2022/08/15 11:05:05;;;;;;;;;;;;;;;22.75;62.96;99993.09;7404878;19;1560;-51
2022/08/15 11:07:40;;;;;;;;;;;;;;;22.60;63.08;99984.94;7405703;19;1918;-51
2022/08/15 11:10:13;;;;;;;;;;;;;;;22.72;62.32;99976.44;7405192;19;1596;-51
2022/08/15 11:12:49;;;;;;;;;;;;;;;22.61;62.97;99975.81;7403329;19;1659;-51
2022/08/15 11:15:25;;;;;;;;;;;;;;;22.51;63.46;99987.88;7404995;19;1587;-51
2022/08/15 11:18:10;;;;;;;;;;;;;;;22.61;62.98;99985.78;7402666;19;1364;-51
2022/08/15 11:20:52;;;;;;;;;;;;;;;22.59;63.75;99991.34;7406098;19;1529;-51
2022/08/15 11:23:32;;;;;;;;;;;;;;;22.48;63.89;99974.72;7403933;19;1863;-51
2022/08/15 11:26:03;;;;;;;;;;;;;;;22.61;63.09;99975.81;7404840;19;1782;-51
2022/08/15 11:28:54;;;;;;;;;;;;;;;22.56;63.55;99970.16;7404893;19;1818;-51
2022/08/15 11:31:29;;;;;;;;;;;;;;;22.62;63.62;99977.53;7404679;19;1994;-51
2022/08/15 11:33:59;;;;;;;;;;;;;;;22.59;63.44;99983.25;7404826;19;1782;-51
2022/08/15 11:36:35;;;;;;;;;;;;;;;22.52;64.00;99979.63;7404754;19;1951;-51
2022/08/15 11:39:17;;;;;;;;;;;;;;;22.62;63.22;99982.91;7404398;19;1456;-51
2022/08/15 11:41:51;;;;;;;;;;;;;;;22.59;63.60;99982.41;7402723;19;1638;-52
2022/08/15 11:44:41;;;;;;;;;;;;;;;22.63;63.52;99976.50;7401711;19;1862;-51
2022/08/15 11:47:20;;;;;;;;;;;;;;;22.69;62.91;99980.31;7403376;19;1728;-52
2022/08/15 11:49:52;;;;;;;;;;;;;;;22.63;63.54;99989.13;7403381;19;1347;-51
2022/08/15 11:52:31;;;;;;;;;;;;;;;22.49;64.05;99985.34;7404198;19;1642;-51
2022/08/15 11:55:22;;;;;;;;;;;;;;;22.60;63.01;99976.00;7400925;19;1691;-52
2022/08/15 11:57:59;;;;;;;;;;;;;;;22.48;63.63;99956.69;7403910;19;1588;-51
2022/08/15 12:00:32;;;;;;;;;;;;;;;22.60;63.40;99955.31;7403187;19;1423;-52
2022/08/15 12:03:18;;;;;;;;;;;;;;;23.15;62.09;99961.44;7402555;19;1859;-51
2022/08/15 12:05:47;;;;;;;;;;;;;;;23.71;61.46;99923.25;7402880;19;1621;-51
2022/08/15 12:08:23;;;;;;;;;;;;;;;24.01;61.08;99940.31;7403491;19;1670;-51
2022/08/15 12:10:57;;;;;;;;;;;;;;;24.11;60.56;99934.59;7403571;19;1798;-51
2022/08/15 12:13:52;;;;;;;;;;;;;;;24.19;60.30;99941.75;7402215;19;1454;-51
2022/08/15 12:16:28;;;;;;;;;;;;;;;24.30;60.76;99938.56;7404395;19;962;-48
2022/08/15 12:19:29;;;;;;;;;;;;;;;24.30;60.70;99935.03;7402248;19;1327;-47
2022/08/15 12:22:01;;;;;;;;;;;;;;;24.32;60.78;99932.97;7403187;19;1832;-51
2022/08/15 12:24:52;;;;;;;;;;;;;;;24.46;60.82;99926.69;7400327;19;2012;-53
2022/08/15 12:27:25;;;;;;;;;;;;;;;24.68;60.53;99932.97;7401254;19;1678;-53
2022/08/15 12:29:56;;;;;;;;;;;;;;;24.62;60.78;99933.75;7401409;19;1807;-52
2022/08/15 12:32:26;;;;;;;;;;;;;;;24.78;60.98;99929.94;7402630;19;1464;-53
2022/08/15 12:34:59;;;;;;;;;;;;;;;24.77;61.11;99928.25;7401976;19;1200;-53
2022/08/15 12:37:40;;;;;;;;;;;;;;;24.81;61.43;99930.38;7402388;19;1563;-53
2022/08/15 12:40:23;;;;;;;;;;;;;;;24.86;61.39;99927.09;7400884;19;2029;-53
2022/08/15 12:42:51;;;;;;;;;;;;;;;24.89;61.67;99920.44;7399539;19;1848;-53
2022/08/15 12:45:26;;;;;;;;;;;;;;;24.93;62.18;99908.22;7400696;19;1464;-53
2022/08/15 12:47:57;;;;;;;;;;;;;;;24.96;61.82;99914.06;7402231;19;1925;-53
2022/08/15 12:50:32;;;;;;;;;;;;;;;25.02;62.43;99916.00;7402925;19;1620;-53
2022/08/15 12:53:02;;;;;;;;;;;;;;;25.07;63.12;99895.63;7399797;19;1332;-52
2022/08/15 12:55:33;;;;;;;;;;;;;;;25.25;63.62;99893.31;7401538;19;2049;-52
2022/08/15 12:58:02;;;;;;;;;;;;;;;25.32;63.53;99899.59;7401989;19;1587;-51
2022/08/15 13:00:31;;;;;;;;;;;;;;;25.34;63.42;99885.88;7401805;19;1681;-51
2022/08/15 13:03:09;;;;;;;;;;;;;;;25.43;63.67;99886.53;7398721;19;1860;-50
2022/08/15 13:05:44;;;;;;;;;;;;;;;25.47;64.48;99890.53;7401051;19;1656;-51
2022/08/15 13:08:13;;;;;;;;;;;;;;;25.50;64.53;99882.81;7402127;19;1907;-51
2022/08/15 13:10:43;;;;;;;;;;;;;;;25.48;64.26;99873.25;7401593;19;1808;-50
2022/08/15 13:13:18;;;;;;;;;;;;;;;25.49;64.95;99880.34;7400933;19;1707;-51
2022/08/15 13:15:49;;;;;;;;;;;;;;;25.48;65.17;99881.38;7400771;19;1524;-55
2022/08/15 13:18:23;;;;;;;;;;;;;;;25.50;64.85;99874.69;7400751;19;1631;-55
2022/08/15 13:23:51;;;;;;;;;;;;;;;25.55;65.27;99866.81;7401416;19;1842;-55
2022/08/15 13:26:22;;;;;;;;;;;;;;;25.55;65.26;99877.66;7400015;19;1324;-54
2022/08/15 13:28:53;;;;;;;;;;;;;;;25.51;65.13;99875.56;7399940;19;1449;-56
2022/08/15 13:31:29;;;;;;;;;;;;;;;25.58;65.44;99893.47;7401659;19;1228;-53
2022/08/15 13:34:00;;;;;;;;;;;;;;;25.52;65.35;99872.63;7401122;19;1551;-53
2022/08/15 13:36:32;;;;;;;;;;;;;;;25.59;65.80;99881.63;7400650;19;1809;-55
2022/08/15 13:39:06;;;;;;;;;;;;;;;25.60;65.79;99874.34;7396206;19;1584;-54
2022/08/15 13:41:37;;;;;;;;;;;;;;;25.64;66.20;99874.78;7396824;19;1592;-53
2022/08/15 13:44:06;;;;;;;;;;;;;;;25.68;66.10;99871.47;7397682;19;1867;-55
2022/08/15 13:46:35;;;;;;;;;;;;;;;25.66;65.92;99873.53;7397675;19;1473;-55
2022/08/15 13:49:07;;;;;;;;;;;;;;;25.62;66.16;99874.16;7398293;19;1829;-51
2022/08/15 13:51:44;;;;;;;;;;;;;;;25.70;65.65;99876.69;7399701;19;1936;-51
2022/08/15 13:54:15;;;;;;;;;;;;;;;25.63;65.92;99879.38;7397869;19;1391;-53
2022/08/15 13:56:44;;;;;;;;;;;;;;;25.60;66.24;99877.91;7399325;19;1456;-53
2022/08/15 13:59:13;;;;;;;;;;;;;;;25.57;65.79;99891.00;7400798;19;1386;-52